sensor_id;sensor_type;location;lat;lon;timestamp;P1;durP1;ratioP1;P2;durP2;ratioP2
1977;SDS011;989;53.016;8.346;2023-01-26T00:01:08;82.30;;;24.83;;
1977;SDS011;989;53.016;8.346;2023-01-26T00:03:36;80.95;;;26.13;;
1977;SDS011;989;53.016;8.346;2023-01-26T00:06:06;73.30;;;25.30;;
1977;SDS011;989;53.016;8.346;2023-01-26T00:08:53;65.25;;;21.17;;
1977;SDS011;989;53.016;8.346;2023-01-26T00:11:21;71.10;;;24.85;;
1977;SDS011;989;53.016;8.346;2023-01-26T00:13:53;82.53;;;25.95;;
1977;SDS011;989;53.016;8.346;2023-01-26T00:16:21;69.38;;;26.80;;
1977;SDS011;989;53.016;8.346;2023-01-26T00:18:48;85.22;;;26.65;;
1977;SDS011;989;53.016;8.346;2023-01-26T00:21:14;72.10;;;24.17;;
1977;SDS011;989;53.016;8.346;2023-01-26T00:23:43;98.40;;;24.35;;
1977;SDS011;989;53.016;8.346;2023-01-26T00:26:10;86.15;;;24.17;;
1977;SDS011;989;53.016;8.346;2023-01-26T00:28:41;67.22;;;24.08;;
1977;SDS011;989;53.016;8.346;2023-01-26T00:31:40;62.43;;;19.80;;
1977;SDS011;989;53.016;8.346;2023-01-26T00:33:58;69.10;;;25.60;;
1977;SDS011;989;53.016;8.346;2023-01-26T00:36:24;69.53;;;23.70;;
1977;SDS011;989;53.016;8.346;2023-01-26T00:38:51;75.60;;;25.17;;
1977;SDS011;989;53.016;8.346;2023-01-26T00:41:17;63.77;;;24.03;;
1977;SDS011;989;53.016;8.346;2023-01-26T00:44:01;63.72;;;22.65;;
1977;SDS011;989;53.016;8.346;2023-01-26T00:46:27;69.17;;;22.97;;
1977;SDS011;989;53.016;8.346;2023-01-26T00:48:53;69.53;;;23.67;;
1977;SDS011;989;53.016;8.346;2023-01-26T00:51:19;67.50;;;23.30;;
1977;SDS011;989;53.016;8.346;2023-01-26T00:53:45;74.73;;;25.90;;
1977;SDS011;989;53.016;8.346;2023-01-26T00:56:10;70.90;;;21.43;;
1977;SDS011;989;53.016;8.346;2023-01-26T00:58:38;84.22;;;28.67;;
1977;SDS011;989;53.016;8.346;2023-01-26T01:01:04;72.43;;;22.43;;
1977;SDS011;989;53.016;8.346;2023-01-26T01:03:30;93.83;;;24.37;;
1977;SDS011;989;53.016;8.346;2023-01-26T01:05:56;84.40;;;24.33;;
1977;SDS011;989;53.016;8.346;2023-01-26T01:08:21;93.37;;;25.23;;
1977;SDS011;989;53.016;8.346;2023-01-26T01:10:47;63.10;;;23.27;;
1977;SDS011;989;53.016;8.346;2023-01-26T01:13:13;73.33;;;24.07;;
1977;SDS011;989;53.016;8.346;2023-01-26T01:15:38;83.17;;;22.97;;
1977;SDS011;989;53.016;8.346;2023-01-26T01:18:04;86.40;;;24.40;;
1977;SDS011;989;53.016;8.346;2023-01-26T01:20:30;63.93;;;21.07;;
1977;SDS011;989;53.016;8.346;2023-01-26T01:22:55;91.40;;;26.70;;
1977;SDS011;989;53.016;8.346;2023-01-26T01:25:21;84.97;;;23.67;;
1977;SDS011;989;53.016;8.346;2023-01-26T01:27:47;93.27;;;28.47;;
1977;SDS011;989;53.016;8.346;2023-01-26T01:30:12;81.40;;;28.30;;
1977;SDS011;989;53.016;8.346;2023-01-26T01:32:38;109.10;;;28.73;;
1977;SDS011;989;53.016;8.346;2023-01-26T01:35:04;70.97;;;21.63;;
1977;SDS011;989;53.016;8.346;2023-01-26T01:37:30;79.88;;;21.52;;
1977;SDS011;989;53.016;8.346;2023-01-26T01:39:57;77.97;;;25.00;;
1977;SDS011;989;53.016;8.346;2023-01-26T01:42:24;76.50;;;24.37;;
1977;SDS011;989;53.016;8.346;2023-01-26T01:48:00;80.93;;;24.63;;
1977;SDS011;989;53.016;8.346;2023-01-26T01:50:30;92.45;;;24.77;;
1977;SDS011;989;53.016;8.346;2023-01-26T01:53:03;70.97;;;24.20;;
1977;SDS011;989;53.016;8.346;2023-01-26T01:55:30;62.03;;;22.58;;
1977;SDS011;989;53.016;8.346;2023-01-26T01:57:56;56.57;;;18.97;;
1977;SDS011;989;53.016;8.346;2023-01-26T02:00:25;77.07;;;22.70;;
1977;SDS011;989;53.016;8.346;2023-01-26T02:03:04;96.88;;;27.08;;
1977;SDS011;989;53.016;8.346;2023-01-26T02:11:16;90.97;;;25.40;;
1977;SDS011;989;53.016;8.346;2023-01-26T02:13:53;73.07;;;23.25;;
1977;SDS011;989;53.016;8.346;2023-01-26T02:16:21;68.93;;;22.90;;
1977;SDS011;989;53.016;8.346;2023-01-26T02:18:47;74.40;;;23.17;;
1977;SDS011;989;53.016;8.346;2023-01-26T02:21:17;66.37;;;21.73;;
1977;SDS011;989;53.016;8.346;2023-01-26T02:23:50;89.95;;;24.50;;
1977;SDS011;989;53.016;8.346;2023-01-26T02:26:38;73.63;;;24.10;;
1977;SDS011;989;53.016;8.346;2023-01-26T02:29:05;57.03;;;22.10;;
1977;SDS011;989;53.016;8.346;2023-01-26T02:31:33;73.88;;;21.20;;
1977;SDS011;989;53.016;8.346;2023-01-26T02:34:00;77.93;;;19.92;;
1977;SDS011;989;53.016;8.346;2023-01-26T02:36:29;89.90;;;25.23;;
1977;SDS011;989;53.016;8.346;2023-01-26T02:39:08;80.95;;;23.83;;
1977;SDS011;989;53.016;8.346;2023-01-26T02:41:53;94.03;;;24.02;;
1977;SDS011;989;53.016;8.346;2023-01-26T02:44:38;71.15;;;20.55;;
1977;SDS011;989;53.016;8.346;2023-01-26T02:47:12;70.32;;;23.25;;
1977;SDS011;989;53.016;8.346;2023-01-26T02:49:43;57.10;;;17.20;;
1977;SDS011;989;53.016;8.346;2023-01-26T02:52:12;73.50;;;22.45;;
1977;SDS011;989;53.016;8.346;2023-01-26T02:54:39;93.97;;;22.75;;
1977;SDS011;989;53.016;8.346;2023-01-26T02:57:23;76.70;;;21.55;;
1977;SDS011;989;53.016;8.346;2023-01-26T02:59:50;80.80;;;21.27;;
1977;SDS011;989;53.016;8.346;2023-01-26T03:02:16;110.43;;;23.90;;
1977;SDS011;989;53.016;8.346;2023-01-26T03:04:41;63.00;;;18.20;;
1977;SDS011;989;53.016;8.346;2023-01-26T03:07:08;90.07;;;23.27;;
1977;SDS011;989;53.016;8.346;2023-01-26T03:09:34;89.63;;;20.63;;
1977;SDS011;989;53.016;8.346;2023-01-26T03:12:00;78.67;;;25.27;;
1977;SDS011;989;53.016;8.346;2023-01-26T03:14:25;91.33;;;20.60;;
1977;SDS011;989;53.016;8.346;2023-01-26T03:16:51;60.53;;;20.13;;
1977;SDS011;989;53.016;8.346;2023-01-26T03:19:17;66.20;;;21.33;;
1977;SDS011;989;53.016;8.346;2023-01-26T03:22:01;65.57;;;17.98;;
1977;SDS011;989;53.016;8.346;2023-01-26T03:24:45;70.82;;;22.23;;
1977;SDS011;989;53.016;8.346;2023-01-26T03:27:32;56.38;;;18.98;;
1977;SDS011;989;53.016;8.346;2023-01-26T03:30:07;47.17;;;14.65;;
1977;SDS011;989;53.016;8.346;2023-01-26T03:32:34;90.28;;;21.45;;
1977;SDS011;989;53.016;8.346;2023-01-26T03:34:59;57.80;;;18.57;;
1977;SDS011;989;53.016;8.346;2023-01-26T03:37:25;52.10;;;14.93;;
1977;SDS011;989;53.016;8.346;2023-01-26T03:39:51;69.70;;;22.53;;
1977;SDS011;989;53.016;8.346;2023-01-26T03:42:35;32.90;;;13.40;;
1977;SDS011;989;53.016;8.346;2023-01-26T03:45:20;51.40;;;20.00;;
1977;SDS011;989;53.016;8.346;2023-01-26T03:48:05;75.22;;;19.75;;
1977;SDS011;989;53.016;8.346;2023-01-26T03:50:51;55.78;;;18.77;;
1977;SDS011;989;53.016;8.346;2023-01-26T03:53:36;70.55;;;19.23;;
1977;SDS011;989;53.016;8.346;2023-01-26T03:56:20;60.83;;;17.83;;
1977;SDS011;989;53.016;8.346;2023-01-26T03:58:51;46.47;;;12.13;;
1977;SDS011;989;53.016;8.346;2023-01-26T04:01:21;37.47;;;15.90;;
1977;SDS011;989;53.016;8.346;2023-01-26T04:03:52;55.55;;;16.05;;
1977;SDS011;989;53.016;8.346;2023-01-26T04:06:39;50.38;;;16.95;;
1977;SDS011;989;53.016;8.346;2023-01-26T04:09:28;55.05;;;18.58;;
1977;SDS011;989;53.016;8.346;2023-01-26T04:11:55;74.57;;;18.60;;
1977;SDS011;989;53.016;8.346;2023-01-26T04:14:21;65.95;;;19.23;;
1977;SDS011;989;53.016;8.346;2023-01-26T04:17:05;41.70;;;15.63;;
1977;SDS011;989;53.016;8.346;2023-01-26T04:19:50;61.22;;;19.25;;
1977;SDS011;989;53.016;8.346;2023-01-26T04:22:35;55.38;;;17.35;;
1977;SDS011;989;53.016;8.346;2023-01-26T04:25:14;39.40;;;13.75;;
1977;SDS011;989;53.016;8.346;2023-01-26T04:27:43;57.97;;;17.55;;
1977;SDS011;989;53.016;8.346;2023-01-26T04:30:11;65.40;;;18.27;;
1977;SDS011;989;53.016;8.346;2023-01-26T04:32:39;54.15;;;16.75;;
1977;SDS011;989;53.016;8.346;2023-01-26T04:35:05;50.25;;;14.20;;
1977;SDS011;989;53.016;8.346;2023-01-26T04:37:33;57.40;;;17.65;;
1977;SDS011;989;53.016;8.346;2023-01-26T04:39:59;34.83;;;9.00;;
1977;SDS011;989;53.016;8.346;2023-01-26T04:42:25;37.73;;;11.70;;
1977;SDS011;989;53.016;8.346;2023-01-26T04:44:50;48.23;;;15.40;;
1977;SDS011;989;53.016;8.346;2023-01-26T04:47:17;67.63;;;18.65;;
1977;SDS011;989;53.016;8.346;2023-01-26T04:49:44;59.95;;;20.52;;
1977;SDS011;989;53.016;8.346;2023-01-26T04:52:10;70.10;;;19.95;;
1977;SDS011;989;53.016;8.346;2023-01-26T04:54:36;59.38;;;16.80;;
1977;SDS011;989;53.016;8.346;2023-01-26T04:57:02;67.30;;;16.20;;
1977;SDS011;989;53.016;8.346;2023-01-26T04:59:28;71.30;;;17.87;;
1977;SDS011;989;53.016;8.346;2023-01-26T05:01:54;43.95;;;14.90;;
1977;SDS011;989;53.016;8.346;2023-01-26T05:04:20;50.45;;;17.25;;
1977;SDS011;989;53.016;8.346;2023-01-26T05:06:46;42.77;;;12.90;;
1977;SDS011;989;53.016;8.346;2023-01-26T05:09:11;24.30;;;9.40;;
1977;SDS011;989;53.016;8.346;2023-01-26T05:11:37;26.10;;;10.27;;
1977;SDS011;989;53.016;8.346;2023-01-26T05:14:03;60.85;;;17.75;;
1977;SDS011;989;53.016;8.346;2023-01-26T05:16:29;34.73;;;13.60;;
1977;SDS011;989;53.016;8.346;2023-01-26T05:18:55;56.13;;;17.60;;
1977;SDS011;989;53.016;8.346;2023-01-26T05:21:21;41.07;;;15.13;;
1977;SDS011;989;53.016;8.346;2023-01-26T05:23:49;53.53;;;15.75;;
1977;SDS011;989;53.016;8.346;2023-01-26T05:26:15;51.05;;;15.95;;
1977;SDS011;989;53.016;8.346;2023-01-26T05:28:41;30.58;;;11.73;;
1977;SDS011;989;53.016;8.346;2023-01-26T05:31:07;56.77;;;15.63;;
1977;SDS011;989;53.016;8.346;2023-01-26T05:33:32;50.33;;;14.93;;
1977;SDS011;989;53.016;8.346;2023-01-26T05:36:01;34.93;;;9.47;;
1977;SDS011;989;53.016;8.346;2023-01-26T05:38:32;42.50;;;12.73;;
1977;SDS011;989;53.016;8.346;2023-01-26T05:40:58;43.92;;;13.95;;
1977;SDS011;989;53.016;8.346;2023-01-26T05:43:24;39.47;;;14.73;;
1977;SDS011;989;53.016;8.346;2023-01-26T05:45:49;39.20;;;14.27;;
1977;SDS011;989;53.016;8.346;2023-01-26T05:48:15;41.35;;;13.00;;
1977;SDS011;989;53.016;8.346;2023-01-26T05:50:41;43.47;;;12.93;;
1977;SDS011;989;53.016;8.346;2023-01-26T05:53:07;48.00;;;15.63;;
1977;SDS011;989;53.016;8.346;2023-01-26T05:55:33;37.17;;;13.33;;
1977;SDS011;989;53.016;8.346;2023-01-26T05:57:59;53.85;;;12.82;;
1977;SDS011;989;53.016;8.346;2023-01-26T06:00:24;29.80;;;10.87;;
1977;SDS011;989;53.016;8.346;2023-01-26T06:02:50;40.40;;;15.80;;
1977;SDS011;989;53.016;8.346;2023-01-26T06:05:16;40.03;;;10.70;;
1977;SDS011;989;53.016;8.346;2023-01-26T06:07:42;42.50;;;14.57;;
1977;SDS011;989;53.016;8.346;2023-01-26T06:10:08;35.40;;;11.73;;
1977;SDS011;989;53.016;8.346;2023-01-26T06:12:35;35.40;;;12.90;;
1977;SDS011;989;53.016;8.346;2023-01-26T06:15:03;32.60;;;12.93;;
1977;SDS011;989;53.016;8.346;2023-01-26T06:17:30;43.88;;;13.18;;
1977;SDS011;989;53.016;8.346;2023-01-26T06:19:55;45.10;;;15.97;;
1977;SDS011;989;53.016;8.346;2023-01-26T06:22:21;40.87;;;12.73;;
1977;SDS011;989;53.016;8.346;2023-01-26T06:24:47;30.30;;;10.20;;
1977;SDS011;989;53.016;8.346;2023-01-26T06:27:13;31.00;;;12.03;;
1977;SDS011;989;53.016;8.346;2023-01-26T06:29:41;41.33;;;12.00;;
1977;SDS011;989;53.016;8.346;2023-01-26T06:32:08;39.20;;;11.57;;
1977;SDS011;989;53.016;8.346;2023-01-26T06:34:38;41.88;;;13.73;;
1977;SDS011;989;53.016;8.346;2023-01-26T06:37:04;50.00;;;15.30;;
1977;SDS011;989;53.016;8.346;2023-01-26T06:39:31;38.40;;;12.27;;
1977;SDS011;989;53.016;8.346;2023-01-26T06:41:57;38.87;;;14.23;;
1977;SDS011;989;53.016;8.346;2023-01-26T06:44:22;36.90;;;12.60;;
1977;SDS011;989;53.016;8.346;2023-01-26T06:46:48;54.07;;;13.57;;
1977;SDS011;989;53.016;8.346;2023-01-26T06:49:13;40.57;;;11.67;;
1977;SDS011;989;53.016;8.346;2023-01-26T06:51:51;48.40;;;15.25;;
1977;SDS011;989;53.016;8.346;2023-01-26T06:54:28;47.70;;;12.13;;
1977;SDS011;989;53.016;8.346;2023-01-26T06:56:53;49.90;;;12.87;;
1977;SDS011;989;53.016;8.346;2023-01-26T06:59:19;49.23;;;13.27;;
1977;SDS011;989;53.016;8.346;2023-01-26T07:01:45;30.60;;;11.33;;
1977;SDS011;989;53.016;8.346;2023-01-26T07:04:12;48.83;;;12.30;;
1977;SDS011;989;53.016;8.346;2023-01-26T07:06:40;51.55;;;14.00;;
1977;SDS011;989;53.016;8.346;2023-01-26T07:09:06;50.42;;;14.13;;
1977;SDS011;989;53.016;8.346;2023-01-26T07:11:31;37.40;;;10.27;;
1977;SDS011;989;53.016;8.346;2023-01-26T07:13:57;45.33;;;13.00;;
1977;SDS011;989;53.016;8.346;2023-01-26T07:16:23;47.45;;;12.85;;
1977;SDS011;989;53.016;8.346;2023-01-26T07:18:49;49.87;;;14.20;;
1977;SDS011;989;53.016;8.346;2023-01-26T07:21:17;39.88;;;13.02;;
1977;SDS011;989;53.016;8.346;2023-01-26T07:23:43;38.87;;;11.87;;
1977;SDS011;989;53.016;8.346;2023-01-26T07:26:10;40.45;;;12.73;;
1977;SDS011;989;53.016;8.346;2023-01-26T07:28:35;41.03;;;12.73;;
1977;SDS011;989;53.016;8.346;2023-01-26T07:31:02;36.80;;;12.40;;
1977;SDS011;989;53.016;8.346;2023-01-26T07:33:30;37.60;;;12.73;;
1977;SDS011;989;53.016;8.346;2023-01-26T07:35:57;32.65;;;11.27;;
1977;SDS011;989;53.016;8.346;2023-01-26T07:38:24;43.90;;;13.20;;
1977;SDS011;989;53.016;8.346;2023-01-26T07:40:52;41.05;;;13.10;;
1977;SDS011;989;53.016;8.346;2023-01-26T07:43:17;43.67;;;13.83;;
1977;SDS011;989;53.016;8.346;2023-01-26T07:45:44;52.40;;;13.90;;
1977;SDS011;989;53.016;8.346;2023-01-26T07:48:17;37.72;;;12.57;;
1977;SDS011;989;53.016;8.346;2023-01-26T07:50:44;43.85;;;13.20;;
1977;SDS011;989;53.016;8.346;2023-01-26T07:53:11;51.85;;;13.80;;
1977;SDS011;989;53.016;8.346;2023-01-26T07:55:39;43.25;;;13.95;;
1977;SDS011;989;53.016;8.346;2023-01-26T07:58:07;44.15;;;13.80;;
1977;SDS011;989;53.016;8.346;2023-01-26T08:00:34;32.00;;;9.88;;
1977;SDS011;989;53.016;8.346;2023-01-26T08:03:00;55.80;;;14.68;;
1977;SDS011;989;53.016;8.346;2023-01-26T08:05:26;55.63;;;12.17;;
1977;SDS011;989;53.016;8.346;2023-01-26T08:07:51;31.37;;;11.40;;
1977;SDS011;989;53.016;8.346;2023-01-26T08:10:17;37.77;;;12.67;;
1977;SDS011;989;53.016;8.346;2023-01-26T08:12:43;43.70;;;13.17;;
1977;SDS011;989;53.016;8.346;2023-01-26T08:15:08;44.07;;;11.73;;
1977;SDS011;989;53.016;8.346;2023-01-26T08:17:35;46.47;;;14.98;;
1977;SDS011;989;53.016;8.346;2023-01-26T08:20:02;52.85;;;12.98;;
1977;SDS011;989;53.016;8.346;2023-01-26T08:22:28;39.50;;;11.30;;
1977;SDS011;989;53.016;8.346;2023-01-26T08:24:54;45.73;;;12.83;;
1977;SDS011;989;53.016;8.346;2023-01-26T08:27:19;31.43;;;10.23;;
1977;SDS011;989;53.016;8.346;2023-01-26T08:29:47;48.20;;;13.68;;
1977;SDS011;989;53.016;8.346;2023-01-26T08:32:12;30.77;;;11.53;;
1977;SDS011;989;53.016;8.346;2023-01-26T08:34:38;58.73;;;13.80;;
1977;SDS011;989;53.016;8.346;2023-01-26T08:37:03;42.83;;;12.10;;
1977;SDS011;989;53.016;8.346;2023-01-26T08:39:29;50.93;;;12.30;;
1977;SDS011;989;53.016;8.346;2023-01-26T08:41:54;50.47;;;16.00;;
1977;SDS011;989;53.016;8.346;2023-01-26T08:44:20;34.07;;;9.67;;
1977;SDS011;989;53.016;8.346;2023-01-26T08:46:46;49.33;;;12.83;;
1977;SDS011;989;53.016;8.346;2023-01-26T08:49:11;61.57;;;15.53;;
1977;SDS011;989;53.016;8.346;2023-01-26T08:51:37;58.23;;;11.90;;
1977;SDS011;989;53.016;8.346;2023-01-26T08:54:06;47.63;;;13.40;;
1977;SDS011;989;53.016;8.346;2023-01-26T08:56:32;71.95;;;14.00;;
1977;SDS011;989;53.016;8.346;2023-01-26T08:58:58;49.08;;;13.60;;
1977;SDS011;989;53.016;8.346;2023-01-26T09:01:24;48.13;;;13.25;;
1977;SDS011;989;53.016;8.346;2023-01-26T09:03:50;84.73;;;16.70;;
1977;SDS011;989;53.016;8.346;2023-01-26T09:06:16;102.78;;;14.88;;
1977;SDS011;989;53.016;8.346;2023-01-26T09:08:43;99.55;;;13.98;;
1977;SDS011;989;53.016;8.346;2023-01-26T09:11:09;106.87;;;14.47;;
1977;SDS011;989;53.016;8.346;2023-01-26T09:13:36;99.95;;;13.77;;
1977;SDS011;989;53.016;8.346;2023-01-26T09:16:03;66.38;;;13.77;;
1977;SDS011;989;53.016;8.346;2023-01-26T09:18:39;100.95;;;14.70;;
1977;SDS011;989;53.016;8.346;2023-01-26T09:21:06;96.23;;;14.60;;
1977;SDS011;989;53.016;8.346;2023-01-26T09:23:33;115.03;;;15.80;;
1977;SDS011;989;53.016;8.346;2023-01-26T09:26:00;75.97;;;14.77;;
1977;SDS011;989;53.016;8.346;2023-01-26T09:28:27;103.10;;;15.88;;
1977;SDS011;989;53.016;8.346;2023-01-26T09:30:53;143.02;;;17.13;;
1977;SDS011;989;53.016;8.346;2023-01-26T09:33:19;116.50;;;16.23;;
1977;SDS011;989;53.016;8.346;2023-01-26T09:35:46;160.32;;;16.75;;
1977;SDS011;989;53.016;8.346;2023-01-26T09:38:13;77.25;;;11.70;;
1977;SDS011;989;53.016;8.346;2023-01-26T09:40:42;86.30;;;14.80;;
1977;SDS011;989;53.016;8.346;2023-01-26T09:46:27;115.18;;;15.30;;
1977;SDS011;989;53.016;8.346;2023-01-26T09:49:23;88.95;;;16.35;;
1977;SDS011;989;53.016;8.346;2023-01-26T09:52:05;132.82;;;17.90;;
1977;SDS011;989;53.016;8.346;2023-01-26T09:57:16;189.55;;;19.30;;
1977;SDS011;989;53.016;8.346;2023-01-26T10:08:25;102.03;;;16.73;;
1977;SDS011;989;53.016;8.346;2023-01-26T10:13:21;87.63;;;16.05;;
1977;SDS011;989;53.016;8.346;2023-01-26T10:15:50;96.32;;;15.40;;
1977;SDS011;989;53.016;8.346;2023-01-26T10:18:30;113.38;;;18.20;;
1977;SDS011;989;53.016;8.346;2023-01-26T10:21:01;208.68;;;17.45;;
1977;SDS011;989;53.016;8.346;2023-01-26T10:23:33;189.80;;;17.63;;
1977;SDS011;989;53.016;8.346;2023-01-26T10:26:15;106.70;;;17.30;;
1977;SDS011;989;53.016;8.346;2023-01-26T10:28:48;329.17;;;23.60;;
1977;SDS011;989;53.016;8.346;2023-01-26T10:31:20;208.50;;;18.73;;
1977;SDS011;989;53.016;8.346;2023-01-26T10:34:26;170.15;;;16.50;;
1977;SDS011;989;53.016;8.346;2023-01-26T10:36:49;177.77;;;19.90;;
1977;SDS011;989;53.016;8.346;2023-01-26T10:39:15;92.47;;;16.27;;
1977;SDS011;989;53.016;8.346;2023-01-26T10:47:03;361.80;;;27.52;;
1977;SDS011;989;53.016;8.346;2023-01-26T10:49:51;240.45;;;22.48;;
1977;SDS011;989;53.016;8.346;2023-01-26T10:52:18;314.47;;;28.13;;
1977;SDS011;989;53.016;8.346;2023-01-26T10:54:46;191.10;;;18.35;;
1977;SDS011;989;53.016;8.346;2023-01-26T10:57:36;194.50;;;19.25;;
1977;SDS011;989;53.016;8.346;2023-01-26T11:00:05;249.88;;;22.85;;
1977;SDS011;989;53.016;8.346;2023-01-26T11:02:54;98.93;;;17.77;;
1977;SDS011;989;53.016;8.346;2023-01-26T11:05:28;100.57;;;16.10;;
1977;SDS011;989;53.016;8.346;2023-01-26T11:07:55;166.87;;;16.10;;
1977;SDS011;989;53.016;8.346;2023-01-26T11:10:34;90.45;;;15.43;;
1977;SDS011;989;53.016;8.346;2023-01-26T11:13:12;141.80;;;18.63;;
1977;SDS011;989;53.016;8.346;2023-01-26T11:15:46;109.88;;;17.35;;
1977;SDS011;989;53.016;8.346;2023-01-26T11:18:17;189.13;;;20.42;;
1977;SDS011;989;53.016;8.346;2023-01-26T11:21:02;98.60;;;16.90;;
1977;SDS011;989;53.016;8.346;2023-01-26T11:26:32;130.55;;;16.67;;
1977;SDS011;989;53.016;8.346;2023-01-26T11:32:12;133.75;;;14.88;;
1977;SDS011;989;53.016;8.346;2023-01-26T11:34:49;150.77;;;14.85;;
1977;SDS011;989;53.016;8.346;2023-01-26T11:37:48;142.65;;;15.68;;
1977;SDS011;989;53.016;8.346;2023-01-26T11:46:37;85.70;;;12.60;;
1977;SDS011;989;53.016;8.346;2023-01-26T11:49:25;70.32;;;11.00;;
1977;SDS011;989;53.016;8.346;2023-01-26T11:57:55;52.28;;;10.02;;
1977;SDS011;989;53.016;8.346;2023-01-26T12:00:51;61.53;;;9.93;;
1977;SDS011;989;53.016;8.346;2023-01-26T12:06:01;62.50;;;9.50;;
1977;SDS011;989;53.016;8.346;2023-01-26T12:11:25;64.97;;;12.32;;
1977;SDS011;989;53.016;8.346;2023-01-26T12:14:14;67.95;;;11.98;;
1977;SDS011;989;53.016;8.346;2023-01-26T12:20:33;63.22;;;10.82;;
1977;SDS011;989;53.016;8.346;2023-01-26T12:23:26;56.00;;;9.35;;
1977;SDS011;989;53.016;8.346;2023-01-26T12:26:06;54.85;;;8.68;;
1977;SDS011;989;53.016;8.346;2023-01-26T12:28:40;42.67;;;8.15;;
1977;SDS011;989;53.016;8.346;2023-01-26T12:33:39;39.90;;;8.53;;
1977;SDS011;989;53.016;8.346;2023-01-26T12:36:17;57.67;;;8.65;;
1977;SDS011;989;53.016;8.346;2023-01-26T12:39:05;25.77;;;6.15;;
1977;SDS011;989;53.016;8.346;2023-01-26T12:44:25;45.95;;;6.07;;
1977;SDS011;989;53.016;8.346;2023-01-26T12:49:49;32.17;;;5.03;;
1977;SDS011;989;53.016;8.346;2023-01-26T12:52:36;34.08;;;7.47;;
1977;SDS011;989;53.016;8.346;2023-01-26T12:55:24;39.83;;;5.95;;
1977;SDS011;989;53.016;8.346;2023-01-26T12:57:57;25.75;;;4.50;;
1977;SDS011;989;53.016;8.346;2023-01-26T13:00:36;49.10;;;6.43;;
1977;SDS011;989;53.016;8.346;2023-01-26T13:03:24;25.70;;;4.75;;
1977;SDS011;989;53.016;8.346;2023-01-26T13:11:06;37.40;;;5.40;;
1977;SDS011;989;53.016;8.346;2023-01-26T13:13:34;24.48;;;3.50;;
1977;SDS011;989;53.016;8.346;2023-01-26T13:18:53;18.95;;;4.68;;
1977;SDS011;989;53.016;8.346;2023-01-26T13:21:29;27.92;;;3.88;;
1977;SDS011;989;53.016;8.346;2023-01-26T13:26:46;18.08;;;2.80;;
1977;SDS011;989;53.016;8.346;2023-01-26T13:31:53;37.15;;;6.22;;
1977;SDS011;989;53.016;8.346;2023-01-26T13:34:22;24.48;;;3.53;;
1977;SDS011;989;53.016;8.346;2023-01-26T13:37:08;13.98;;;3.53;;
1977;SDS011;989;53.016;8.346;2023-01-26T13:39:40;26.92;;;3.13;;
1977;SDS011;989;53.016;8.346;2023-01-26T13:42:15;14.65;;;2.75;;
1977;SDS011;989;53.016;8.346;2023-01-26T13:44:50;21.42;;;2.35;;
1977;SDS011;989;53.016;8.346;2023-01-26T13:47:27;17.50;;;2.55;;
1977;SDS011;989;53.016;8.346;2023-01-26T13:50:08;37.05;;;3.25;;
1977;SDS011;989;53.016;8.346;2023-01-26T13:56:34;30.80;;;3.40;;
1977;SDS011;989;53.016;8.346;2023-01-26T13:59:07;45.00;;;5.38;;
1977;SDS011;989;53.016;8.346;2023-01-26T14:01:45;4.80;;;1.85;;
1977;SDS011;989;53.016;8.346;2023-01-26T14:04:21;23.92;;;2.60;;
1977;SDS011;989;53.016;8.346;2023-01-26T14:07:05;6.10;;;1.80;;
1977;SDS011;989;53.016;8.346;2023-01-26T14:09:40;15.73;;;2.92;;
1977;SDS011;989;53.016;8.346;2023-01-26T14:12:18;10.95;;;3.13;;
1977;SDS011;989;53.016;8.346;2023-01-26T14:14:49;11.95;;;2.00;;
1977;SDS011;989;53.016;8.346;2023-01-26T14:19:58;19.35;;;2.92;;
1977;SDS011;989;53.016;8.346;2023-01-26T14:22:25;13.10;;;1.95;;
1977;SDS011;989;53.016;8.346;2023-01-26T14:24:52;13.07;;;2.60;;
1977;SDS011;989;53.016;8.346;2023-01-26T14:27:38;10.77;;;2.40;;
1977;SDS011;989;53.016;8.346;2023-01-26T14:30:24;3.55;;;1.23;;
1977;SDS011;989;53.016;8.346;2023-01-26T14:33:05;19.60;;;3.10;;
1977;SDS011;989;53.016;8.346;2023-01-26T14:35:40;6.55;;;2.47;;
1977;SDS011;989;53.016;8.346;2023-01-26T14:40:46;9.68;;;1.65;;
1977;SDS011;989;53.016;8.346;2023-01-26T14:43:14;21.13;;;1.85;;
1977;SDS011;989;53.016;8.346;2023-01-26T14:48:20;11.88;;;2.28;;
1977;SDS011;989;53.016;8.346;2023-01-26T14:50:50;6.93;;;2.80;;
1977;SDS011;989;53.016;8.346;2023-01-26T14:53:17;21.80;;;2.80;;
1977;SDS011;989;53.016;8.346;2023-01-26T14:55:46;18.35;;;1.85;;
1977;SDS011;989;53.016;8.346;2023-01-26T14:58:23;8.23;;;1.50;;
1977;SDS011;989;53.016;8.346;2023-01-26T15:00:54;18.48;;;1.85;;
1977;SDS011;989;53.016;8.346;2023-01-26T15:03:24;22.30;;;3.38;;
1977;SDS011;989;53.016;8.346;2023-01-26T15:08:37;17.10;;;3.30;;
1977;SDS011;989;53.016;8.346;2023-01-26T15:11:05;9.02;;;2.30;;
1977;SDS011;989;53.016;8.346;2023-01-26T15:13:53;12.15;;;4.50;;
1977;SDS011;989;53.016;8.346;2023-01-26T15:16:21;23.90;;;3.50;;
1977;SDS011;989;53.016;8.346;2023-01-26T15:18:58;19.30;;;2.65;;
1977;SDS011;989;53.016;8.346;2023-01-26T15:21:34;13.45;;;2.63;;
1977;SDS011;989;53.016;8.346;2023-01-26T15:24:05;16.77;;;2.30;;
1977;SDS011;989;53.016;8.346;2023-01-26T15:26:37;19.52;;;2.80;;
1977;SDS011;989;53.016;8.346;2023-01-26T15:29:03;11.17;;;1.93;;
1977;SDS011;989;53.016;8.346;2023-01-26T15:31:41;17.52;;;2.70;;
1977;SDS011;989;53.016;8.346;2023-01-26T15:34:27;14.37;;;2.73;;
1977;SDS011;989;53.016;8.346;2023-01-26T15:36:58;5.85;;;2.20;;
1977;SDS011;989;53.016;8.346;2023-01-26T15:39:26;23.92;;;4.43;;
1977;SDS011;989;53.016;8.346;2023-01-26T15:42:11;6.15;;;1.90;;
1977;SDS011;989;53.016;8.346;2023-01-26T15:44:40;9.82;;;2.33;;
1977;SDS011;989;53.016;8.346;2023-01-26T15:47:09;6.28;;;2.67;;
1977;SDS011;989;53.016;8.346;2023-01-26T15:49:37;4.18;;;1.70;;
1977;SDS011;989;53.016;8.346;2023-01-26T15:52:13;12.38;;;2.58;;
1977;SDS011;989;53.016;8.346;2023-01-26T15:54:40;14.90;;;2.55;;
1977;SDS011;989;53.016;8.346;2023-01-26T15:57:07;18.38;;;3.53;;
1977;SDS011;989;53.016;8.346;2023-01-26T15:59:37;5.53;;;2.03;;
1977;SDS011;989;53.016;8.346;2023-01-26T16:02:09;4.55;;;1.20;;
1977;SDS011;989;53.016;8.346;2023-01-26T16:04:41;6.40;;;1.35;;
1977;SDS011;989;53.016;8.346;2023-01-26T16:07:17;12.23;;;2.25;;
1977;SDS011;989;53.016;8.346;2023-01-26T16:09:43;5.38;;;1.10;;
1977;SDS011;989;53.016;8.346;2023-01-26T16:12:13;10.93;;;1.90;;
1977;SDS011;989;53.016;8.346;2023-01-26T16:14:41;14.18;;;1.80;;
1977;SDS011;989;53.016;8.346;2023-01-26T16:17:13;13.10;;;1.70;;
1977;SDS011;989;53.016;8.346;2023-01-26T16:19:41;9.13;;;2.08;;
1977;SDS011;989;53.016;8.346;2023-01-26T16:22:08;22.55;;;2.22;;
1977;SDS011;989;53.016;8.346;2023-01-26T16:24:35;7.45;;;2.22;;
1977;SDS011;989;53.016;8.346;2023-01-26T16:27:02;6.18;;;1.92;;
1977;SDS011;989;53.016;8.346;2023-01-26T16:29:29;9.68;;;2.45;;
1977;SDS011;989;53.016;8.346;2023-01-26T16:31:56;6.78;;;1.30;;
1977;SDS011;989;53.016;8.346;2023-01-26T16:34:24;6.18;;;1.45;;
1977;SDS011;989;53.016;8.346;2023-01-26T16:36:50;11.27;;;2.10;;
1977;SDS011;989;53.016;8.346;2023-01-26T16:39:16;9.63;;;1.60;;
1977;SDS011;989;53.016;8.346;2023-01-26T16:41:41;5.27;;;1.30;;
1977;SDS011;989;53.016;8.346;2023-01-26T16:44:11;3.43;;;1.57;;
1977;SDS011;989;53.016;8.346;2023-01-26T16:46:38;11.57;;;1.95;;
1977;SDS011;989;53.016;8.346;2023-01-26T16:49:04;3.40;;;1.87;;
1977;SDS011;989;53.016;8.346;2023-01-26T16:51:39;5.27;;;1.40;;
1977;SDS011;989;53.016;8.346;2023-01-26T16:54:06;4.07;;;1.70;;
1977;SDS011;989;53.016;8.346;2023-01-26T16:56:33;11.43;;;1.63;;
1977;SDS011;989;53.016;8.346;2023-01-26T16:58:58;4.10;;;2.00;;
1977;SDS011;989;53.016;8.346;2023-01-26T17:01:25;8.60;;;2.60;;